sensor_id;sensor_type;location;lat;lon;timestamp;P1;durP1;ratioP1;P2;durP2;ratioP2
14377;SDS011;7272;53.668;9.578;2023-04-04T00:02:46;6.37;;;4.00;;
14377;SDS011;7272;53.668;9.578;2023-04-04T00:05:50;6.50;;;4.10;;
14377;SDS011;7272;53.668;9.578;2023-04-04T00:08:52;5.40;;;4.30;;
14377;SDS011;7272;53.668;9.578;2023-04-04T00:11:54;4.13;;;3.73;;
14377;SDS011;7272;53.668;9.578;2023-04-04T00:14:57;5.13;;;4.57;;
14377;SDS011;7272;53.668;9.578;2023-04-04T00:17:59;5.30;;;3.67;;
14377;SDS011;7272;53.668;9.578;2023-04-04T00:21:03;4.60;;;3.87;;
14377;SDS011;7272;53.668;9.578;2023-04-04T00:24:05;4.53;;;3.97;;
14377;SDS011;7272;53.668;9.578;2023-04-04T00:27:07;4.33;;;3.90;;
14377;SDS011;7272;53.668;9.578;2023-04-04T00:30:10;4.30;;;3.33;;
14377;SDS011;7272;53.668;9.578;2023-04-04T00:33:12;4.43;;;3.53;;
14377;SDS011;7272;53.668;9.578;2023-04-04T00:36:16;5.07;;;3.40;;
14377;SDS011;7272;53.668;9.578;2023-04-04T00:39:18;4.17;;;3.37;;
14377;SDS011;7272;53.668;9.578;2023-04-04T00:42:20;4.33;;;3.60;;
14377;SDS011;7272;53.668;9.578;2023-04-04T00:45:22;3.60;;;3.27;;
14377;SDS011;7272;53.668;9.578;2023-04-04T00:48:24;3.37;;;3.07;;
14377;SDS011;7272;53.668;9.578;2023-04-04T00:51:28;3.77;;;3.10;;
14377;SDS011;7272;53.668;9.578;2023-04-04T00:54:30;4.83;;;2.80;;
14377;SDS011;7272;53.668;9.578;2023-04-04T00:57:32;2.47;;;2.27;;
14377;SDS011;7272;53.668;9.578;2023-04-04T01:00:34;3.60;;;2.83;;
14377;SDS011;7272;53.668;9.578;2023-04-04T01:03:37;2.70;;;2.50;;
14377;SDS011;7272;53.668;9.578;2023-04-04T01:06:41;3.30;;;3.00;;
14377;SDS011;7272;53.668;9.578;2023-04-04T01:09:45;2.90;;;2.70;;
14377;SDS011;7272;53.668;9.578;2023-04-04T01:12:47;3.80;;;2.83;;
14377;SDS011;7272;53.668;9.578;2023-04-04T01:15:51;4.60;;;2.97;;
14377;SDS011;7272;53.668;9.578;2023-04-04T01:18:53;3.07;;;2.37;;
14377;SDS011;7272;53.668;9.578;2023-04-04T01:21:58;2.43;;;2.20;;
14377;SDS011;7272;53.668;9.578;2023-04-04T01:25:00;3.47;;;2.30;;
14377;SDS011;7272;53.668;9.578;2023-04-04T01:28:06;2.63;;;2.30;;
14377;SDS011;7272;53.668;9.578;2023-04-04T01:31:09;3.60;;;2.47;;
14377;SDS011;7272;53.668;9.578;2023-04-04T01:34:15;2.50;;;2.20;;
14377;SDS011;7272;53.668;9.578;2023-04-04T01:37:23;3.90;;;2.53;;
14377;SDS011;7272;53.668;9.578;2023-04-04T01:40:32;2.63;;;2.00;;
14377;SDS011;7272;53.668;9.578;2023-04-04T01:43:38;2.87;;;2.00;;
14377;SDS011;7272;53.668;9.578;2023-04-04T01:46:40;2.50;;;2.27;;
14377;SDS011;7272;53.668;9.578;2023-04-04T01:49:44;2.07;;;1.97;;
14377;SDS011;7272;53.668;9.578;2023-04-04T01:52:47;2.40;;;2.20;;
14377;SDS011;7272;53.668;9.578;2023-04-04T01:55:49;3.07;;;2.20;;
14377;SDS011;7272;53.668;9.578;2023-04-04T01:58:53;2.20;;;2.10;;
14377;SDS011;7272;53.668;9.578;2023-04-04T02:01:55;2.97;;;2.73;;
14377;SDS011;7272;53.668;9.578;2023-04-04T02:04:57;2.83;;;2.53;;
14377;SDS011;7272;53.668;9.578;2023-04-04T02:07:59;2.93;;;2.50;;
14377;SDS011;7272;53.668;9.578;2023-04-04T02:11:09;3.00;;;2.17;;
14377;SDS011;7272;53.668;9.578;2023-04-04T02:14:12;3.70;;;2.60;;
14377;SDS011;7272;53.668;9.578;2023-04-04T02:17:15;3.53;;;3.07;;
14377;SDS011;7272;53.668;9.578;2023-04-04T02:20:17;2.20;;;2.00;;
14377;SDS011;7272;53.668;9.578;2023-04-04T02:23:19;2.83;;;2.63;;
14377;SDS011;7272;53.668;9.578;2023-04-04T02:26:21;2.97;;;2.70;;
14377;SDS011;7272;53.668;9.578;2023-04-04T02:29:24;3.33;;;2.70;;
14377;SDS011;7272;53.668;9.578;2023-04-04T02:32:26;2.93;;;2.70;;
14377;SDS011;7272;53.668;9.578;2023-04-04T02:35:28;3.90;;;3.00;;
14377;SDS011;7272;53.668;9.578;2023-04-04T02:38:30;3.07;;;2.73;;
14377;SDS011;7272;53.668;9.578;2023-04-04T02:41:34;4.07;;;3.20;;
14377;SDS011;7272;53.668;9.578;2023-04-04T02:44:37;4.83;;;2.83;;
14377;SDS011;7272;53.668;9.578;2023-04-04T02:47:41;4.07;;;3.50;;
14377;SDS011;7272;53.668;9.578;2023-04-04T02:50:50;5.57;;;3.20;;
14377;SDS011;7272;53.668;9.578;2023-04-04T02:53:52;3.10;;;2.90;;
14377;SDS011;7272;53.668;9.578;2023-04-04T02:57:01;5.50;;;3.20;;
14377;SDS011;7272;53.668;9.578;2023-04-04T03:00:06;4.27;;;3.00;;
14377;SDS011;7272;53.668;9.578;2023-04-04T03:03:09;3.93;;;3.33;;
14377;SDS011;7272;53.668;9.578;2023-04-04T03:06:16;3.80;;;3.40;;
14377;SDS011;7272;53.668;9.578;2023-04-04T03:09:21;4.20;;;3.23;;
14377;SDS011;7272;53.668;9.578;2023-04-04T03:12:24;3.30;;;3.00;;
14377;SDS011;7272;53.668;9.578;2023-04-04T03:15:28;3.20;;;2.87;;
14377;SDS011;7272;53.668;9.578;2023-04-04T03:18:31;4.53;;;2.93;;
14377;SDS011;7272;53.668;9.578;2023-04-04T03:21:34;2.53;;;2.33;;
14377;SDS011;7272;53.668;9.578;2023-04-04T03:24:36;3.13;;;2.83;;
14377;SDS011;7272;53.668;9.578;2023-04-04T03:27:37;2.73;;;2.53;;
14377;SDS011;7272;53.668;9.578;2023-04-04T03:30:41;3.00;;;2.67;;
14377;SDS011;7272;53.668;9.578;2023-04-04T03:33:43;3.23;;;2.87;;
14377;SDS011;7272;53.668;9.578;2023-04-04T03:36:45;4.60;;;3.03;;
14377;SDS011;7272;53.668;9.578;2023-04-04T03:39:47;3.47;;;2.97;;
14377;SDS011;7272;53.668;9.578;2023-04-04T03:42:49;4.47;;;3.00;;
14377;SDS011;7272;53.668;9.578;2023-04-04T03:45:58;5.27;;;3.00;;
14377;SDS011;7272;53.668;9.578;2023-04-04T03:49:00;2.73;;;2.47;;
14377;SDS011;7272;53.668;9.578;2023-04-04T03:52:04;2.87;;;2.50;;
14377;SDS011;7272;53.668;9.578;2023-04-04T03:55:07;4.80;;;2.67;;
14377;SDS011;7272;53.668;9.578;2023-04-04T03:58:09;2.20;;;2.10;;
14377;SDS011;7272;53.668;9.578;2023-04-04T04:01:13;3.37;;;2.63;;
14377;SDS011;7272;53.668;9.578;2023-04-04T04:04:15;3.47;;;2.70;;
14377;SDS011;7272;53.668;9.578;2023-04-04T04:07:17;4.37;;;3.00;;
14377;SDS011;7272;53.668;9.578;2023-04-04T04:10:19;3.10;;;2.80;;
14377;SDS011;7272;53.668;9.578;2023-04-04T04:13:21;4.07;;;3.20;;
14377;SDS011;7272;53.668;9.578;2023-04-04T04:16:25;4.33;;;3.10;;
14377;SDS011;7272;53.668;9.578;2023-04-04T04:19:28;7.47;;;3.10;;
14377;SDS011;7272;53.668;9.578;2023-04-04T04:22:30;4.53;;;2.97;;
14377;SDS011;7272;53.668;9.578;2023-04-04T04:25:32;3.03;;;2.83;;
14377;SDS011;7272;53.668;9.578;2023-04-04T04:28:48;3.43;;;3.13;;
14377;SDS011;7272;53.668;9.578;2023-04-04T04:31:57;3.67;;;3.33;;
14377;SDS011;7272;53.668;9.578;2023-04-04T04:35:03;3.97;;;3.63;;
14377;SDS011;7272;53.668;9.578;2023-04-04T04:38:08;3.70;;;3.37;;
14377;SDS011;7272;53.668;9.578;2023-04-04T04:41:11;3.70;;;3.30;;
14377;SDS011;7272;53.668;9.578;2023-04-04T04:44:18;4.87;;;3.30;;
14377;SDS011;7272;53.668;9.578;2023-04-04T04:47:22;3.73;;;3.27;;
14377;SDS011;7272;53.668;9.578;2023-04-04T04:50:25;3.53;;;3.23;;
14377;SDS011;7272;53.668;9.578;2023-04-04T04:53:27;3.80;;;3.20;;
14377;SDS011;7272;53.668;9.578;2023-04-04T04:56:29;3.00;;;2.80;;
14377;SDS011;7272;53.668;9.578;2023-04-04T04:59:38;3.70;;;3.07;;
14377;SDS011;7272;53.668;9.578;2023-04-04T05:02:45;3.40;;;3.03;;
14377;SDS011;7272;53.668;9.578;2023-04-04T05:05:50;3.40;;;2.93;;
14377;SDS011;7272;53.668;9.578;2023-04-04T05:08:53;2.47;;;2.27;;
14377;SDS011;7272;53.668;9.578;2023-04-04T05:12:00;3.33;;;2.80;;
14377;SDS011;7272;53.668;9.578;2023-04-04T05:15:11;2.90;;;2.70;;
14377;SDS011;7272;53.668;9.578;2023-04-04T05:18:16;3.20;;;3.00;;
14377;SDS011;7272;53.668;9.578;2023-04-04T05:21:20;4.70;;;3.30;;
14377;SDS011;7272;53.668;9.578;2023-04-04T05:24:24;3.77;;;3.47;;
14377;SDS011;7272;53.668;9.578;2023-04-04T05:27:27;3.90;;;3.13;;
14377;SDS011;7272;53.668;9.578;2023-04-04T05:30:36;3.97;;;3.57;;
14377;SDS011;7272;53.668;9.578;2023-04-04T05:34:00;3.50;;;2.93;;
14377;SDS011;7272;53.668;9.578;2023-04-04T05:37:07;3.70;;;3.30;;
14377;SDS011;7272;53.668;9.578;2023-04-04T05:40:10;3.83;;;3.40;;
14377;SDS011;7272;53.668;9.578;2023-04-04T05:43:12;4.40;;;3.50;;
14377;SDS011;7272;53.668;9.578;2023-04-04T05:46:35;6.13;;;3.77;;
14377;SDS011;7272;53.668;9.578;2023-04-04T05:49:40;3.80;;;3.50;;
14377;SDS011;7272;53.668;9.578;2023-04-04T05:52:42;3.97;;;3.40;;
14377;SDS011;7272;53.668;9.578;2023-04-04T05:55:50;4.40;;;3.27;;
14377;SDS011;7272;53.668;9.578;2023-04-04T05:58:54;3.63;;;3.23;;
14377;SDS011;7272;53.668;9.578;2023-04-04T06:01:57;3.73;;;3.23;;
14377;SDS011;7272;53.668;9.578;2023-04-04T06:05:02;3.67;;;3.27;;
14377;SDS011;7272;53.668;9.578;2023-04-04T06:08:08;3.87;;;3.57;;
14377;SDS011;7272;53.668;9.578;2023-04-04T06:11:11;3.83;;;3.50;;
14377;SDS011;7272;53.668;9.578;2023-04-04T06:14:13;3.37;;;2.83;;
14377;SDS011;7272;53.668;9.578;2023-04-04T06:17:15;3.80;;;3.50;;
14377;SDS011;7272;53.668;9.578;2023-04-04T06:20:18;5.47;;;3.60;;
14377;SDS011;7272;53.668;9.578;2023-04-04T06:23:24;6.53;;;4.30;;
14377;SDS011;7272;53.668;9.578;2023-04-04T06:26:26;6.07;;;3.63;;
14377;SDS011;7272;53.668;9.578;2023-04-04T06:29:29;4.27;;;3.80;;
14377;SDS011;7272;53.668;9.578;2023-04-04T06:32:33;6.07;;;3.90;;
14377;SDS011;7272;53.668;9.578;2023-04-04T06:35:38;5.47;;;4.10;;
14377;SDS011;7272;53.668;9.578;2023-04-04T06:38:41;4.43;;;4.00;;
14377;SDS011;7272;53.668;9.578;2023-04-04T06:41:50;7.13;;;3.47;;
14377;SDS011;7272;53.668;9.578;2023-04-04T06:44:57;5.30;;;3.50;;
14377;SDS011;7272;53.668;9.578;2023-04-04T06:47:59;4.77;;;3.23;;
14377;SDS011;7272;53.668;9.578;2023-04-04T06:51:08;3.83;;;3.37;;
14377;SDS011;7272;53.668;9.578;2023-04-04T06:54:13;6.17;;;3.77;;
14377;SDS011;7272;53.668;9.578;2023-04-04T06:57:15;5.53;;;3.30;;
14377;SDS011;7272;53.668;9.578;2023-04-04T07:00:18;4.33;;;3.80;;
14377;SDS011;7272;53.668;9.578;2023-04-04T07:03:23;7.23;;;4.23;;
14377;SDS011;7272;53.668;9.578;2023-04-04T07:06:26;7.53;;;3.90;;
14377;SDS011;7272;53.668;9.578;2023-04-04T07:09:29;3.90;;;3.50;;
14377;SDS011;7272;53.668;9.578;2023-04-04T07:12:31;4.60;;;3.40;;
14377;SDS011;7272;53.668;9.578;2023-04-04T07:15:33;4.30;;;2.93;;
14377;SDS011;7272;53.668;9.578;2023-04-04T07:18:35;3.87;;;3.10;;
14377;SDS011;7272;53.668;9.578;2023-04-04T07:21:38;4.60;;;3.43;;
14377;SDS011;7272;53.668;9.578;2023-04-04T07:24:40;4.90;;;3.50;;
14377;SDS011;7272;53.668;9.578;2023-04-04T07:27:43;6.23;;;3.37;;
14377;SDS011;7272;53.668;9.578;2023-04-04T07:30:45;3.67;;;3.30;;
14377;SDS011;7272;53.668;9.578;2023-04-04T07:33:47;6.13;;;3.40;;
14377;SDS011;7272;53.668;9.578;2023-04-04T07:36:50;3.97;;;3.57;;
14377;SDS011;7272;53.668;9.578;2023-04-04T07:39:52;4.07;;;3.30;;
14377;SDS011;7272;53.668;9.578;2023-04-04T07:42:56;3.37;;;3.07;;
14377;SDS011;7272;53.668;9.578;2023-04-04T07:45:58;3.40;;;2.90;;
14377;SDS011;7272;53.668;9.578;2023-04-04T07:49:00;3.57;;;2.90;;
14377;SDS011;7272;53.668;9.578;2023-04-04T07:52:04;4.13;;;3.10;;
14377;SDS011;7272;53.668;9.578;2023-04-04T07:55:06;2.97;;;2.70;;
14377;SDS011;7272;53.668;9.578;2023-04-04T07:58:09;2.83;;;2.53;;
14377;SDS011;7272;53.668;9.578;2023-04-04T08:01:11;3.93;;;2.37;;
14377;SDS011;7272;53.668;9.578;2023-04-04T08:04:13;4.43;;;2.80;;
14377;SDS011;7272;53.668;9.578;2023-04-04T08:07:16;2.90;;;2.63;;
14377;SDS011;7272;53.668;9.578;2023-04-04T08:10:18;2.57;;;2.33;;
14377;SDS011;7272;53.668;9.578;2023-04-04T08:13:21;2.73;;;2.20;;
14377;SDS011;7272;53.668;9.578;2023-04-04T08:16:23;3.27;;;2.10;;
14377;SDS011;7272;53.668;9.578;2023-04-04T08:19:28;2.00;;;1.80;;
14377;SDS011;7272;53.668;9.578;2023-04-04T08:22:31;4.07;;;2.60;;
14377;SDS011;7272;53.668;9.578;2023-04-04T08:25:33;2.60;;;2.20;;
14377;SDS011;7272;53.668;9.578;2023-04-04T08:28:35;2.60;;;2.40;;
14377;SDS011;7272;53.668;9.578;2023-04-04T08:31:40;2.70;;;2.50;;
14377;SDS011;7272;53.668;9.578;2023-04-04T08:34:42;3.80;;;2.60;;
14377;SDS011;7272;53.668;9.578;2023-04-04T08:37:46;3.97;;;2.27;;
14377;SDS011;7272;53.668;9.578;2023-04-04T08:40:48;2.53;;;2.30;;
14377;SDS011;7272;53.668;9.578;2023-04-04T08:43:50;2.93;;;2.20;;
14377;SDS011;7272;53.668;9.578;2023-04-04T08:46:55;2.30;;;2.20;;
14377;SDS011;7272;53.668;9.578;2023-04-04T08:50:00;1.90;;;1.80;;
14377;SDS011;7272;53.668;9.578;2023-04-04T08:53:06;2.57;;;2.20;;
14377;SDS011;7272;53.668;9.578;2023-04-04T08:56:09;3.73;;;2.20;;
14377;SDS011;7272;53.668;9.578;2023-04-04T08:59:14;3.73;;;2.20;;
14377;SDS011;7272;53.668;9.578;2023-04-04T09:02:21;3.17;;;2.20;;
14377;SDS011;7272;53.668;9.578;2023-04-04T09:05:26;4.03;;;2.13;;
14377;SDS011;7272;53.668;9.578;2023-04-04T09:08:32;3.30;;;2.30;;
14377;SDS011;7272;53.668;9.578;2023-04-04T09:11:35;4.27;;;2.00;;
14377;SDS011;7272;53.668;9.578;2023-04-04T09:14:39;2.70;;;1.73;;
14377;SDS011;7272;53.668;9.578;2023-04-04T09:17:43;2.63;;;1.70;;
14377;SDS011;7272;53.668;9.578;2023-04-04T09:20:46;3.10;;;2.30;;
14377;SDS011;7272;53.668;9.578;2023-04-04T09:23:58;2.97;;;2.00;;
14377;SDS011;7272;53.668;9.578;2023-04-04T09:27:00;2.20;;;2.00;;
14377;SDS011;7272;53.668;9.578;2023-04-04T09:30:03;1.87;;;1.57;;
14377;SDS011;7272;53.668;9.578;2023-04-04T09:33:06;1.97;;;1.50;;
14377;SDS011;7272;53.668;9.578;2023-04-04T09:36:11;2.77;;;1.67;;
14377;SDS011;7272;53.668;9.578;2023-04-04T09:39:14;2.30;;;1.63;;
14377;SDS011;7272;53.668;9.578;2023-04-04T09:42:16;3.87;;;1.60;;
14377;SDS011;7272;53.668;9.578;2023-04-04T09:45:19;1.60;;;1.50;;
14377;SDS011;7272;53.668;9.578;2023-04-04T09:48:24;2.00;;;1.77;;
14377;SDS011;7272;53.668;9.578;2023-04-04T09:51:32;1.77;;;1.60;;
14377;SDS011;7272;53.668;9.578;2023-04-04T09:54:37;2.43;;;1.90;;
14377;SDS011;7272;53.668;9.578;2023-04-04T09:57:39;2.90;;;2.20;;
14377;SDS011;7272;53.668;9.578;2023-04-04T10:00:45;2.40;;;2.00;;
14377;SDS011;7272;53.668;9.578;2023-04-04T10:03:50;2.90;;;1.70;;
14377;SDS011;7272;53.668;9.578;2023-04-04T10:06:53;3.33;;;2.00;;
14377;SDS011;7272;53.668;9.578;2023-04-04T10:09:59;2.23;;;1.80;;
14377;SDS011;7272;53.668;9.578;2023-04-04T10:13:02;2.43;;;1.57;;
14377;SDS011;7272;53.668;9.578;2023-04-04T10:16:05;2.07;;;1.33;;
14377;SDS011;7272;53.668;9.578;2023-04-04T10:19:07;3.07;;;1.70;;
14377;SDS011;7272;53.668;9.578;2023-04-04T10:22:10;2.43;;;1.60;;
14377;SDS011;7272;53.668;9.578;2023-04-04T10:25:15;1.50;;;1.33;;
14377;SDS011;7272;53.668;9.578;2023-04-04T10:28:17;2.47;;;1.60;;
14377;SDS011;7272;53.668;9.578;2023-04-04T10:31:21;4.30;;;1.60;;
14377;SDS011;7272;53.668;9.578;2023-04-04T10:34:27;1.43;;;1.33;;
14377;SDS011;7272;53.668;9.578;2023-04-04T10:37:33;1.30;;;1.27;;
14377;SDS011;7272;53.668;9.578;2023-04-04T10:40:42;1.90;;;1.43;;
14377;SDS011;7272;53.668;9.578;2023-04-04T10:43:47;2.70;;;1.70;;
14377;SDS011;7272;53.668;9.578;2023-04-04T10:46:52;2.80;;;1.93;;
14377;SDS011;7272;53.668;9.578;2023-04-04T10:49:54;3.67;;;1.80;;
14377;SDS011;7272;53.668;9.578;2023-04-04T10:52:57;1.60;;;1.40;;
14377;SDS011;7272;53.668;9.578;2023-04-04T10:56:02;2.33;;;1.80;;
14377;SDS011;7272;53.668;9.578;2023-04-04T10:59:09;1.87;;;1.40;;
14377;SDS011;7272;53.668;9.578;2023-04-04T11:02:12;1.50;;;1.40;;
14377;SDS011;7272;53.668;9.578;2023-04-04T11:05:18;2.93;;;1.67;;
14377;SDS011;7272;53.668;9.578;2023-04-04T11:08:22;1.67;;;1.57;;
14377;SDS011;7272;53.668;9.578;2023-04-04T11:11:28;2.27;;;1.50;;
14377;SDS011;7272;53.668;9.578;2023-04-04T11:14:30;2.83;;;1.80;;
14377;SDS011;7272;53.668;9.578;2023-04-04T11:17:56;2.00;;;1.53;;
14377;SDS011;7272;53.668;9.578;2023-04-04T11:21:00;2.70;;;1.70;;
14377;SDS011;7272;53.668;9.578;2023-04-04T11:24:13;2.57;;;1.57;;
14377;SDS011;7272;53.668;9.578;2023-04-04T11:27:17;2.47;;;1.50;;
14377;SDS011;7272;53.668;9.578;2023-04-04T11:30:19;3.03;;;1.63;;
14377;SDS011;7272;53.668;9.578;2023-04-04T11:33:25;1.63;;;1.30;;
14377;SDS011;7272;53.668;9.578;2023-04-04T11:39:55;2.13;;;1.63;;
14377;SDS011;7272;53.668;9.578;2023-04-04T11:43:12;1.60;;;1.50;;
14377;SDS011;7272;53.668;9.578;2023-04-04T11:46:16;2.93;;;1.77;;
14377;SDS011;7272;53.668;9.578;2023-04-04T11:49:18;3.37;;;1.87;;
14377;SDS011;7272;53.668;9.578;2023-04-04T11:52:20;3.03;;;2.17;;
14377;SDS011;7272;53.668;9.578;2023-04-04T11:55:23;2.43;;;2.17;;
14377;SDS011;7272;53.668;9.578;2023-04-04T11:58:27;2.00;;;1.80;;
14377;SDS011;7272;53.668;9.578;2023-04-04T12:01:29;1.90;;;1.70;;
14377;SDS011;7272;53.668;9.578;2023-04-04T12:04:31;2.43;;;1.57;;
14377;SDS011;7272;53.668;9.578;2023-04-04T12:07:34;1.70;;;1.60;;
14377;SDS011;7272;53.668;9.578;2023-04-04T12:10:37;2.73;;;1.80;;
14377;SDS011;7272;53.668;9.578;2023-04-04T12:13:42;2.13;;;1.93;;
14377;SDS011;7272;53.668;9.578;2023-04-04T12:16:46;1.90;;;1.70;;
14377;SDS011;7272;53.668;9.578;2023-04-04T12:19:49;2.65;;;2.08;;
14377;SDS011;7272;53.668;9.578;2023-04-04T12:22:51;2.00;;;1.70;;
14377;SDS011;7272;53.668;9.578;2023-04-04T12:25:53;2.03;;;1.60;;
14377;SDS011;7272;53.668;9.578;2023-04-04T12:28:58;1.80;;;1.60;;
14377;SDS011;7272;53.668;9.578;2023-04-04T12:32:00;2.13;;;1.80;;
14377;SDS011;7272;53.668;9.578;2023-04-04T12:35:05;2.37;;;2.17;;
14377;SDS011;7272;53.668;9.578;2023-04-04T12:38:14;1.90;;;1.70;;
14377;SDS011;7272;53.668;9.578;2023-04-04T12:41:16;2.97;;;1.80;;
14377;SDS011;7272;53.668;9.578;2023-04-04T12:44:28;3.07;;;1.83;;
14377;SDS011;7272;53.668;9.578;2023-04-04T12:47:31;2.07;;;1.80;;
14377;SDS011;7272;53.668;9.578;2023-04-04T12:50:34;2.90;;;1.97;;
14377;SDS011;7272;53.668;9.578;2023-04-04T12:53:50;2.50;;;2.20;;
14377;SDS011;7272;53.668;9.578;2023-04-04T12:56:53;4.23;;;2.50;;
14377;SDS011;7272;53.668;9.578;2023-04-04T12:59:58;2.87;;;2.13;;
14377;SDS011;7272;53.668;9.578;2023-04-04T13:03:03;2.57;;;1.83;;
14377;SDS011;7272;53.668;9.578;2023-04-04T13:06:10;2.23;;;2.03;;
14377;SDS011;7272;53.668;9.578;2023-04-04T13:09:15;2.57;;;2.37;;
14377;SDS011;7272;53.668;9.578;2023-04-04T13:12:19;2.63;;;2.20;;
14377;SDS011;7272;53.668;9.578;2023-04-04T13:15:22;2.87;;;2.03;;
14377;SDS011;7272;53.668;9.578;2023-04-04T13:18:25;2.23;;;2.03;;
14377;SDS011;7272;53.668;9.578;2023-04-04T13:21:33;2.50;;;1.93;;
14377;SDS011;7272;53.668;9.578;2023-04-04T13:24:35;2.70;;;2.20;;
14377;SDS011;7272;53.668;9.578;2023-04-04T13:27:37;3.37;;;1.93;;
14377;SDS011;7272;53.668;9.578;2023-04-04T13:30:40;2.95;;;2.20;;
14377;SDS011;7272;53.668;9.578;2023-04-04T13:33:47;1.83;;;1.70;;
14377;SDS011;7272;53.668;9.578;2023-04-04T13:36:49;2.47;;;2.27;;
14377;SDS011;7272;53.668;9.578;2023-04-04T13:39:51;2.90;;;1.70;;
14377;SDS011;7272;53.668;9.578;2023-04-04T13:42:53;2.07;;;1.70;;
14377;SDS011;7272;53.668;9.578;2023-04-04T13:45:56;2.27;;;2.00;;
14377;SDS011;7272;53.668;9.578;2023-04-04T13:48:58;2.57;;;2.17;;
14377;SDS011;7272;53.668;9.578;2023-04-04T13:52:00;2.53;;;2.20;;
14377;SDS011;7272;53.668;9.578;2023-04-04T13:55:03;2.17;;;1.90;;
14377;SDS011;7272;53.668;9.578;2023-04-04T13:58:06;2.40;;;2.20;;
14377;SDS011;7272;53.668;9.578;2023-04-04T14:01:09;1.93;;;1.83;;
14377;SDS011;7272;53.668;9.578;2023-04-04T14:04:11;4.40;;;2.20;;
14377;SDS011;7272;53.668;9.578;2023-04-04T14:07:14;2.13;;;1.93;;
14377;SDS011;7272;53.668;9.578;2023-04-04T14:10:16;2.33;;;1.87;;
14377;SDS011;7272;53.668;9.578;2023-04-04T14:13:18;2.93;;;2.30;;
14377;SDS011;7272;53.668;9.578;2023-04-04T14:16:22;2.50;;;2.30;;
14377;SDS011;7272;53.668;9.578;2023-04-04T14:19:23;2.97;;;2.00;;
14377;SDS011;7272;53.668;9.578;2023-04-04T14:22:26;3.90;;;2.20;;
14377;SDS011;7272;53.668;9.578;2023-04-04T14:25:28;2.83;;;2.40;;
14377;SDS011;7272;53.668;9.578;2023-04-04T14:28:29;2.03;;;1.83;;
14377;SDS011;7272;53.668;9.578;2023-04-04T14:31:33;2.47;;;1.83;;
14377;SDS011;7272;53.668;9.578;2023-04-04T14:34:35;2.53;;;2.30;;
14377;SDS011;7272;53.668;9.578;2023-04-04T14:37:37;2.47;;;2.27;;
14377;SDS011;7272;53.668;9.578;2023-04-04T14:40:39;3.23;;;2.23;;
14377;SDS011;7272;53.668;9.578;2023-04-04T14:43:40;3.37;;;2.20;;
14377;SDS011;7272;53.668;9.578;2023-04-04T14:46:45;2.57;;;2.20;;
14377;SDS011;7272;53.668;9.578;2023-04-04T14:49:47;2.40;;;2.20;;
14377;SDS011;7272;53.668;9.578;2023-04-04T14:52:49;2.13;;;1.90;;
14377;SDS011;7272;53.668;9.578;2023-04-04T14:55:52;1.93;;;1.83;;
14377;SDS011;7272;53.668;9.578;2023-04-04T14:58:53;2.85;;;2.42;;
14377;SDS011;7272;53.668;9.578;2023-04-04T15:01:57;2.87;;;2.17;;
14377;SDS011;7272;53.668;9.578;2023-04-04T15:04:59;3.73;;;2.20;;
14377;SDS011;7272;53.668;9.578;2023-04-04T15:08:01;3.97;;;1.93;;
14377;SDS011;7272;53.668;9.578;2023-04-04T15:11:03;3.07;;;2.20;;
14377;SDS011;7272;53.668;9.578;2023-04-04T15:14:05;2.23;;;2.03;;
14377;SDS011;7272;53.668;9.578;2023-04-04T15:17:08;3.30;;;2.37;;
14377;SDS011;7272;53.668;9.578;2023-04-04T15:20:11;3.43;;;2.07;;
14377;SDS011;7272;53.668;9.578;2023-04-04T15:23:14;3.43;;;2.13;;
14377;SDS011;7272;53.668;9.578;2023-04-04T15:26:16;2.70;;;2.27;;
14377;SDS011;7272;53.668;9.578;2023-04-04T15:29:18;2.53;;;2.33;;
14377;SDS011;7272;53.668;9.578;2023-04-04T15:32:21;3.38;;;2.53;;
14377;SDS011;7272;53.668;9.578;2023-04-04T15:35:23;2.30;;;2.10;;
14377;SDS011;7272;53.668;9.578;2023-04-04T15:38:24;3.50;;;2.13;;
14377;SDS011;7272;53.668;9.578;2023-04-04T15:41:26;2.47;;;2.27;;
14377;SDS011;7272;53.668;9.578;2023-04-04T15:44:29;2.30;;;2.10;;
14377;SDS011;7272;53.668;9.578;2023-04-04T15:47:32;2.57;;;2.10;;
14377;SDS011;7272;53.668;9.578;2023-04-04T15:50:34;3.57;;;1.93;;
14377;SDS011;7272;53.668;9.578;2023-04-04T15:53:36;3.97;;;2.27;;
14377;SDS011;7272;53.668;9.578;2023-04-04T15:56:38;4.03;;;2.20;;
14377;SDS011;7272;53.668;9.578;2023-04-04T15:59:39;2.90;;;2.10;;
14377;SDS011;7272;53.668;9.578;2023-04-04T16:02:43;2.13;;;1.93;;
14377;SDS011;7272;53.668;9.578;2023-04-04T16:05:45;3.70;;;2.13;;
14377;SDS011;7272;53.668;9.578;2023-04-04T16:08:47;2.42;;;2.22;;
14377;SDS011;7272;53.668;9.578;2023-04-04T16:11:49;2.13;;;1.80;;
14377;SDS011;7272;53.668;9.578;2023-04-04T16:14:51;2.37;;;2.17;;
14377;SDS011;7272;53.668;9.578;2023-04-04T16:17:54;2.00;;;1.77;;
14377;SDS011;7272;53.668;9.578;2023-04-04T16:20:57;4.57;;;2.00;;
14377;SDS011;7272;53.668;9.578;2023-04-04T16:24:05;2.70;;;1.80;;
14377;SDS011;7272;53.668;9.578;2023-04-04T16:27:08;2.03;;;1.87;;
14377;SDS011;7272;53.668;9.578;2023-04-04T16:30:10;2.43;;;2.23;;
14377;SDS011;7272;53.668;9.578;2023-04-04T16:33:15;2.77;;;2.10;;
14377;SDS011;7272;53.668;9.578;2023-04-04T16:36:17;1.83;;;1.73;;
14377;SDS011;7272;53.668;9.578;2023-04-04T16:39:19;1.80;;;1.63;;
14377;SDS011;7272;53.668;9.578;2023-04-04T16:42:23;2.57;;;1.83;;
14377;SDS011;7272;53.668;9.578;2023-04-04T16:45:28;2.50;;;2.30;;
14377;SDS011;7272;53.668;9.578;2023-04-04T16:48:33;2.53;;;2.10;;
14377;SDS011;7272;53.668;9.578;2023-04-04T16:51:35;2.53;;;1.80;;
14377;SDS011;7272;53.668;9.578;2023-04-04T16:54:37;1.60;;;1.50;;
14377;SDS011;7272;53.668;9.578;2023-04-04T16:57:41;1.40;;;1.30;;
14377;SDS011;7272;53.668;9.578;2023-04-04T17:00:43;2.70;;;1.50;;
14377;SDS011;7272;53.668;9.578;2023-04-04T17:03:47;1.50;;;1.40;;
14377;SDS011;7272;53.668;9.578;2023-04-04T17:06:49;1.93;;;1.70;;
14377;SDS011;7272;53.668;9.578;2023-04-04T17:09:51;3.67;;;1.83;;
14377;SDS011;7272;53.668;9.578;2023-04-04T17:12:53;2.60;;;1.87;;
14377;SDS011;7272;53.668;9.578;2023-04-04T17:15:55;2.07;;;1.60;;
14377;SDS011;7272;53.668;9.578;2023-04-04T17:18:59;1.73;;;1.37;;
14377;SDS011;7272;53.668;9.578;2023-04-04T17:22:01;1.90;;;1.67;;
14377;SDS011;7272;53.668;9.578;2023-04-04T17:25:03;2.23;;;1.57;;
14377;SDS011;7272;53.668;9.578;2023-04-04T17:28:06;2.10;;;1.70;;
14377;SDS011;7272;53.668;9.578;2023-04-04T17:31:08;1.90;;;1.67;;
14377;SDS011;7272;53.668;9.578;2023-04-04T17:34:12;2.33;;;1.90;;
14377;SDS011;7272;53.668;9.578;2023-04-04T17:37:14;2.23;;;1.70;;
14377;SDS011;7272;53.668;9.578;2023-04-04T17:40:16;2.23;;;1.77;;
14377;SDS011;7272;53.668;9.578;2023-04-04T17:43:19;1.80;;;1.50;;
14377;SDS011;7272;53.668;9.578;2023-04-04T17:46:21;3.63;;;1.90;;
14377;SDS011;7272;53.668;9.578;2023-04-04T17:49:26;2.13;;;1.70;;
14377;SDS011;7272;53.668;9.578;2023-04-04T17:52:28;2.07;;;1.93;;
14377;SDS011;7272;53.668;9.578;2023-04-04T17:55:30;3.43;;;1.90;;
14377;SDS011;7272;53.668;9.578;2023-04-04T17:58:33;2.67;;;1.87;;
14377;SDS011;7272;53.668;9.578;2023-04-04T18:01:36;1.80;;;1.70;;
14377;SDS011;7272;53.668;9.578;2023-04-04T18:04:40;2.60;;;1.80;;
14377;SDS011;7272;53.668;9.578;2023-04-04T18:07:42;2.05;;;1.85;;
14377;SDS011;7272;53.668;9.578;2023-04-04T18:10:44;2.73;;;2.53;;
14377;SDS011;7272;53.668;9.578;2023-04-04T18:13:46;2.95;;;2.60;;
14377;SDS011;7272;53.668;9.578;2023-04-04T18:16:47;4.60;;;2.70;;
14377;SDS011;7272;53.668;9.578;2023-04-04T18:19:51;3.70;;;2.50;;
14377;SDS011;7272;53.668;9.578;2023-04-04T18:22:53;3.50;;;2.67;;
14377;SDS011;7272;53.668;9.578;2023-04-04T18:25:56;3.60;;;2.47;;
14377;SDS011;7272;53.668;9.578;2023-04-04T18:28:59;2.90;;;2.17;;
14377;SDS011;7272;53.668;9.578;2023-04-04T18:32:01;4.43;;;2.20;;
14377;SDS011;7272;53.668;9.578;2023-04-04T18:35:05;2.87;;;2.30;;
14377;SDS011;7272;53.668;9.578;2023-04-04T18:38:08;3.30;;;2.20;;
14377;SDS011;7272;53.668;9.578;2023-04-04T18:41:11;2.57;;;1.90;;
14377;SDS011;7272;53.668;9.578;2023-04-04T18:44:14;2.17;;;2.00;;
14377;SDS011;7272;53.668;9.578;2023-04-04T18:47:16;3.10;;;2.30;;